Time;durP1;ratioP1;P1;durP2;ratioP2;P2;SDS_P1;SDS_P2;PMS_P1;PMS_P2;Temp;Humidity;BMP_temperature;BMP_pressure;BME280_temperature;BME280_humidity;BME280_pressure;Samples;Min_cycle;Max_cycle;Signal;HPM_P1;HPM_P2
2023/09/16 00:01:08;;;;;;;6.82;2.30;;;;;;;18.88;100.00;101947.75;5075429;28;20028;-69
2023/09/16 00:03:35;;;;;;;4.93;2.10;;;;;;;18.90;100.00;101945.59;5076033;28;20059;-67
2023/09/16 00:06:04;;;;;;;7.18;2.30;;;;;;;18.80;100.00;101931.66;5076600;28;20028;-67
2023/09/16 00:08:32;;;;;;;4.57;1.90;;;;;;;18.88;100.00;101945.03;5077220;28;20020;-67
2023/09/16 00:10:58;;;;;;;8.00;2.13;;;;;;;18.91;100.00;101953.56;5075339;28;20036;-68
2023/09/16 00:13:23;;;;;;;7.00;2.40;;;;;;;18.93;100.00;101950.59;5077763;28;20039;-67
2023/09/16 00:15:49;;;;;;;6.85;2.50;;;;;;;18.90;100.00;101949.16;5077119;28;20483;-67
2023/09/16 00:18:18;;;;;;;6.40;2.45;;;;;;;18.88;100.00;101936.84;5076897;28;20036;-68
2023/09/16 00:20:44;;;;;;;7.07;2.40;;;;;;;18.73;100.00;101918.94;5077550;28;20093;-66
2023/09/16 00:23:10;;;;;;;9.43;2.40;;;;;;;18.92;100.00;101943.50;5077416;28;20024;-67
2023/09/16 00:25:36;;;;;;;6.38;2.60;;;;;;;18.92;100.00;101943.50;5072002;28;20097;-67
2023/09/16 00:28:02;;;;;;;7.88;2.67;;;;;;;18.82;100.00;101929.56;5070955;28;20036;-71
2023/09/16 00:30:28;;;;;;;4.10;2.30;;;;;;;18.95;100.00;101948.50;5072241;28;20191;-67
2023/09/16 00:32:53;;;;;;;8.23;2.40;;;;;;;18.91;100.00;101947.28;5074874;28;20088;-68
2023/09/16 00:35:19;;;;;;;8.13;2.20;;;;;;;18.90;100.00;101943.72;5058570;28;20054;-67
2023/09/16 00:37:46;;;;;;;9.20;2.20;;;;;;;18.86;100.00;101939.78;5075671;28;20054;-68
2023/09/16 00:40:12;;;;;;;6.18;2.53;;;;;;;18.51;100.00;101931.31;5076184;28;20111;-67
2023/09/16 00:42:37;;;;;;;5.95;2.20;;;;;;;18.57;100.00;101941.28;5076684;28;20044;-67
2023/09/16 00:45:05;;;;;;;7.88;2.60;;;;;;;18.46;100.00;101936.59;5076844;28;20078;-67
2023/09/16 00:47:32;;;;;;;6.07;2.30;;;;;;;18.19;100.00;101950.44;5078019;28;20043;-67
2023/09/16 00:49:58;;;;;;;5.07;2.38;;;;;;;17.96;100.00;101945.59;5077530;28;20020;-68
2023/09/16 00:52:25;;;;;;;6.70;2.58;;;;;;;17.90;100.00;101937.47;5078483;28;20033;-68
2023/09/16 00:54:52;;;;;;;4.28;2.22;;;;;;;17.78;100.00;101940.91;5077507;28;20036;-67
2023/09/16 00:57:18;;;;;;;6.00;2.30;;;;;;;17.83;100.00;101942.97;5078106;28;20445;-67
2023/09/16 00:59:44;;;;;;;4.40;2.15;;;;;;;17.78;100.00;101940.03;5074995;28;20043;-67
2023/09/16 01:02:09;;;;;;;4.75;2.70;;;;;;;17.82;100.00;101947.56;5076591;28;20394;-68
2023/09/16 01:04:38;;;;;;;8.18;2.78;;;;;;;17.76;100.00;101937.56;5076295;28;20198;-67
2023/09/16 01:07:05;;;;;;;5.38;2.50;;;;;;;17.70;100.00;101934.84;5076669;28;20134;-67
2023/09/16 01:09:32;;;;;;;6.68;2.40;;;;;;;17.71;100.00;101940.06;5075127;28;20048;-67
2023/09/16 01:11:57;;;;;;;8.82;2.63;;;;;;;17.64;100.00;101942.00;5075099;28;20025;-67
2023/09/16 01:14:23;;;;;;;6.35;2.50;;;;;;;17.40;100.00;101924.53;5076640;28;20021;-68
2023/09/16 01:17:02;;;;;;;6.80;2.70;;;;;;;17.33;100.00;101935.47;5074777;28;20071;-67
2023/09/16 01:19:56;;;;;;;5.07;2.75;;;;;;;17.36;100.00;101937.75;5071334;28;20021;-67
2023/09/16 01:22:22;;;;;;;7.18;2.95;;;;;;;17.32;100.00;101922.09;5072913;28;20081;-67
2023/09/16 01:24:54;;;;;;;7.05;2.60;;;;;;;17.47;100.00;101932.66;5073950;28;20429;-67
2023/09/16 01:27:21;;;;;;;6.53;2.78;;;;;;;17.51;100.00;101934.72;5075479;28;20043;-67
2023/09/16 01:29:48;;;;;;;4.22;2.53;;;;;;;17.48;100.00;101920.72;5074489;28;20025;-71
2023/09/16 01:32:16;;;;;;;7.72;2.80;;;;;;;17.53;100.00;101937.25;5057942;28;20021;-67
2023/09/16 01:34:49;;;;;;;4.43;2.60;;;;;;;17.45;100.00;101921.16;5076186;28;20024;-67
2023/09/16 01:37:20;;;;;;;7.32;2.67;;;;;;;17.47;100.00;101929.94;5075568;28;20107;-67
2023/09/16 01:39:52;;;;;;;7.32;2.95;;;;;;;17.44;100.00;101917.59;5075775;28;20025;-68
2023/09/16 01:42:18;;;;;;;6.53;2.40;;;;;;;17.52;100.00;101932.88;5074089;28;20506;-67
2023/09/16 01:44:44;;;;;;;7.18;2.63;;;;;;;17.46;100.00;101933.72;5076475;28;20059;-67
2023/09/16 01:47:10;;;;;;;6.10;2.90;;;;;;;17.43;100.00;101926.00;5080844;28;20025;-68
2023/09/16 01:49:36;;;;;;;7.00;2.78;;;;;;;17.34;100.00;101922.69;5080979;28;20032;-68
2023/09/16 01:52:01;;;;;;;5.63;2.83;;;;;;;17.40;100.00;101927.25;5083387;28;20024;-67
2023/09/16 01:54:26;;;;;;;6.07;2.70;;;;;;;17.37;100.00;101928.53;5078400;28;20035;-67
2023/09/16 01:56:52;;;;;;;7.32;3.30;;;;;;;17.36;100.00;101923.31;5078957;28;20032;-67
2023/09/16 01:59:17;;;;;;;7.43;2.90;;;;;;;17.32;100.00;101928.34;5078205;28;20040;-67
2023/09/16 02:01:44;;;;;;;6.30;2.85;;;;;;;17.28;100.00;101927.09;5080450;28;20024;-67
2023/09/16 02:04:10;;;;;;;6.18;2.60;;;;;;;17.24;100.00;101928.59;5074187;28;20056;-67
2023/09/16 02:06:35;;;;;;;8.13;3.10;;;;;;;17.17;100.00;101922.34;5077529;28;20036;-67
2023/09/16 02:09:01;;;;;;;7.50;3.10;;;;;;;17.09;100.00;101918.00;5079637;28;20032;-67
2023/09/16 02:11:26;;;;;;;6.03;2.97;;;;;;;16.95;100.00;101899.22;5079729;28;20028;-70
2023/09/16 02:13:52;;;;;;;7.75;2.95;;;;;;;16.98;100.00;101912.38;5076792;28;20029;-67
2023/09/16 02:16:19;;;;;;;7.45;3.20;;;;;;;16.96;100.00;101917.22;5074515;28;20024;-67
2023/09/16 02:18:45;;;;;;;11.80;3.13;;;;;;;16.91;100.00;101905.06;5077656;28;20111;-67
2023/09/16 02:21:10;;;;;;;5.88;3.20;;;;;;;16.86;100.00;101902.19;5095193;28;20067;-67
2023/09/16 02:23:36;;;;;;;6.93;2.92;;;;;;;16.74;100.00;101882.09;5061313;28;20036;-67
2023/09/16 02:26:02;;;;;;;6.70;3.17;;;;;;;16.76;100.00;101890.09;5081365;28;20028;-68
2023/09/16 02:28:28;;;;;;;8.27;3.15;;;;;;;16.80;100.00;101903.03;5085998;28;20110;-67
2023/09/16 02:30:53;;;;;;;7.57;3.42;;;;;;;16.77;100.00;101905.34;5081494;28;20057;-68
2023/09/16 02:33:18;;;;;;;6.38;3.22;;;;;;;16.60;100.00;101889.47;5079673;28;20086;-67
2023/09/16 02:35:44;;;;;;;9.57;3.58;;;;;;;16.57;100.00;101894.47;5079448;28;20025;-67
2023/09/16 02:38:10;;;;;;;7.95;3.70;;;;;;;16.60;100.00;101907.66;5077638;28;20406;-67
2023/09/16 02:40:40;;;;;;;10.00;3.80;;;;;;;16.57;100.00;101906.19;5078536;28;20028;-67
2023/09/16 02:43:05;;;;;;;7.82;3.42;;;;;;;16.49;100.00;101906.41;5085185;28;20028;-68
2023/09/16 02:45:31;;;;;;;7.22;3.47;;;;;;;16.46;100.00;101906.84;5073053;28;20176;-68
2023/09/16 02:47:56;;;;;;;5.78;3.58;;;;;;;16.39;100.00;101901.41;5071963;28;20024;-69
2023/09/16 02:50:22;;;;;;;6.70;3.80;;;;;;;16.34;100.00;101898.47;5085374;28;20499;-67
2023/09/16 02:52:47;;;;;;;5.85;3.40;;;;;;;16.34;100.00;101905.81;5077983;28;20059;-68
2023/09/16 02:55:17;;;;;;;9.07;4.03;;;;;;;16.31;100.00;101904.34;5080757;28;20031;-68
2023/09/16 02:57:42;;;;;;;8.20;4.05;;;;;;;16.28;100.00;101899.31;5063051;28;20028;-68
2023/09/16 03:00:10;;;;;;;7.00;4.00;;;;;;;16.27;100.00;101903.09;5079143;28;20031;-67
2023/09/16 03:02:36;;;;;;;8.95;3.97;;;;;;;16.25;100.00;101907.06;5062832;28;20071;-67
2023/09/16 03:05:02;;;;;;;8.50;3.95;;;;;;;16.18;100.00;101907.06;5079004;28;20061;-67
2023/09/16 03:07:28;;;;;;;9.35;3.72;;;;;;;16.10;100.00;101897.25;5081480;28;20098;-67
2023/09/16 03:09:53;;;;;;;7.95;3.90;;;;;;;16.08;100.00;101893.06;5082640;28;20028;-68
2023/09/16 03:12:19;;;;;;;7.07;4.28;;;;;;;16.06;100.00;101898.72;5092958;28;20029;-67
2023/09/16 03:14:47;;;;;;;8.38;4.32;;;;;;;16.06;100.00;101895.16;5078049;28;20035;-67
2023/09/16 03:17:12;;;;;;;8.80;4.10;;;;;;;15.98;100.00;101882.63;5077202;28;20035;-67
2023/09/16 03:19:38;;;;;;;7.35;4.20;;;;;;;16.01;100.00;101884.94;5111013;28;20029;-67
2023/09/16 03:22:03;;;;;;;13.75;5.38;;;;;;;16.00;100.00;101885.16;5078466;28;20028;-67
2023/09/16 03:24:28;;;;;;;8.52;4.70;;;;;;;15.98;100.00;101885.34;5077019;28;20029;-67
2023/09/16 03:26:54;;;;;;;11.73;5.00;;;;;;;15.97;100.00;101881.78;5077263;28;20029;-67
2023/09/16 03:29:19;;;;;;;10.68;4.90;;;;;;;15.96;100.00;101880.13;5077695;28;20028;-67
2023/09/16 03:31:45;;;;;;;9.60;4.95;;;;;;;15.93;100.00;101872.41;5076577;28;20589;-67
2023/09/16 03:34:10;;;;;;;11.27;5.55;;;;;;;15.93;100.00;101875.13;5078036;28;20463;-67
2023/09/16 03:36:36;;;;;;;8.05;5.00;;;;;;;15.93;100.00;101868.84;5076098;28;20024;-67
2023/09/16 03:39:01;;;;;;;10.70;5.43;;;;;;;15.91;100.00;101869.06;5075478;28;20032;-67
2023/09/16 03:41:26;;;;;;;9.00;5.47;;;;;;;15.92;100.00;101868.00;5074770;28;20033;-67
2023/09/16 03:43:52;;;;;;;11.43;4.90;;;;;;;15.89;100.00;101852.16;5057724;28;20033;-68
2023/09/16 03:46:17;;;;;;;10.45;5.63;;;;;;;15.82;100.00;101850.47;5072391;28;20479;-67
2023/09/16 03:48:43;;;;;;;11.38;5.75;;;;;;;15.85;100.00;101856.31;5091444;28;20028;-67
2023/09/16 03:51:08;;;;;;;10.98;5.90;;;;;;;15.85;100.00;101856.31;5076556;28;20024;-67
2023/09/16 03:53:35;;;;;;;10.68;5.93;;;;;;;15.86;100.00;101847.16;5079873;28;20037;-67
2023/09/16 03:56:05;;;;;;;13.32;5.88;;;;;;;15.89;100.00;101841.31;5089914;28;20035;-68
2023/09/16 03:58:32;;;;;;;11.73;5.53;;;;;;;15.93;100.00;101841.72;5120261;28;20033;-67
2023/09/16 04:00:57;;;;;;;10.13;6.20;;;;;;;15.94;100.00;101844.22;5078546;28;20086;-68
2023/09/16 04:03:22;;;;;;;11.27;6.20;;;;;;;15.93;100.00;101844.44;5076943;28;20127;-67
2023/09/16 04:05:48;;;;;;;10.20;5.70;;;;;;;15.92;100.00;101849.00;5077027;28;20475;-67
2023/09/16 04:08:13;;;;;;;9.77;5.88;;;;;;;15.85;100.00;101833.75;5077032;28;20032;-67
2023/09/16 04:10:39;;;;;;;10.20;5.95;;;;;;;15.81;100.00;101827.94;5076907;28;20497;-67
2023/09/16 04:13:07;;;;;;;13.95;6.30;;;;;;;15.91;100.00;101849.22;5059938;28;20025;-67
2023/09/16 04:15:33;;;;;;;11.65;5.97;;;;;;;15.89;100.00;101844.00;5076559;28;20082;-67
2023/09/16 04:17:58;;;;;;;13.20;6.70;;;;;;;15.77;100.00;101815.81;5077399;28;20056;-67
2023/09/16 04:20:24;;;;;;;12.30;6.55;;;;;;;15.90;100.00;101839.41;5076656;28;20056;-68
2023/09/16 04:22:49;;;;;;;11.45;6.28;;;;;;;15.90;100.00;101848.38;5077371;28;20067;-67
2023/09/16 04:25:15;;;;;;;14.35;6.45;;;;;;;15.91;100.00;101849.22;5077518;28;20562;-67
2023/09/16 04:27:40;;;;;;;14.45;6.38;;;;;;;15.90;100.00;101845.69;5078144;28;20313;-68
2023/09/16 04:30:07;;;;;;;14.02;6.88;;;;;;;15.90;100.00;101845.69;5074836;28;20399;-68
2023/09/16 04:32:32;;;;;;;11.70;6.65;;;;;;;15.89;100.00;101843.16;5075487;28;20017;-67
2023/09/16 04:34:58;;;;;;;13.75;6.68;;;;;;;15.88;100.00;101839.59;5076112;28;20082;-67
2023/09/16 04:37:24;;;;;;;15.40;6.75;;;;;;;15.88;100.00;101836.91;5075901;28;20024;-67
2023/09/16 04:39:49;;;;;;;12.02;6.75;;;;;;;15.87;100.00;101831.69;5076614;28;20298;-67
2023/09/16 04:42:15;;;;;;;12.70;6.47;;;;;;;15.84;100.00;101829.38;5076560;28;20032;-68
2023/09/16 04:44:41;;;;;;;10.65;6.05;;;;;;;15.85;100.00;101818.31;5076621;28;20079;-67
2023/09/16 04:47:07;;;;;;;10.73;6.30;;;;;;;15.67;100.00;101794.53;5075489;28;20426;-67
2023/09/16 04:49:33;;;;;;;13.05;6.10;;;;;;;15.82;100.00;101824.16;5075414;28;20029;-67
2023/09/16 04:51:59;;;;;;;22.00;7.13;;;;;;;15.81;100.00;101827.94;5077446;28;20109;-67
2023/09/16 04:54:24;;;;;;;12.35;6.60;;;;;;;15.81;100.00;101830.63;5072866;28;20036;-67
2023/09/16 04:56:50;;;;;;;11.93;6.18;;;;;;;15.81;100.00;101830.63;5077103;28;20486;-68
2023/09/16 04:59:15;;;;;;;9.75;6.60;;;;;;;15.86;100.00;101832.72;5058275;28;20032;-67
2023/09/16 05:01:41;;;;;;;9.10;5.43;;;;;;;15.90;100.00;101828.56;5080866;28;20498;-68
2023/09/16 05:04:06;;;;;;;11.35;5.70;;;;;;;15.98;100.00;101834.59;5079263;28;20052;-68
2023/09/16 05:06:32;;;;;;;14.30;5.93;;;;;;;16.00;100.00;101823.53;5078040;28;20391;-67
2023/09/16 05:08:57;;;;;;;8.40;5.38;;;;;;;16.01;100.00;101836.06;5076831;28;20158;-67
2023/09/16 05:11:22;;;;;;;12.60;5.90;;;;;;;16.13;100.00;101819.97;5092780;28;20044;-68
2023/09/16 05:13:50;;;;;;;9.85;4.95;;;;;;;16.23;100.00;101825.81;5077030;28;20454;-68
2023/09/16 05:16:16;;;;;;;9.77;5.15;;;;;;;16.21;100.00;101819.75;5075888;28;20039;-69
2023/09/16 05:18:41;;;;;;;9.95;5.43;;;;;;;16.32;100.00;101818.25;5075073;28;20036;-68
2023/09/16 05:21:06;;;;;;;10.75;5.20;;;;;;;16.36;100.00;101822.22;5075452;28;20106;-69
2023/09/16 05:23:33;;;;;;;9.90;5.15;;;;;;;16.36;100.00;101824.94;5075903;28;20391;-69
2023/09/16 05:25:59;;;;;;;14.32;5.70;;;;;;;16.34;100.00;101818.88;5075866;28;20020;-69
2023/09/16 05:28:25;;;;;;;12.10;6.00;;;;;;;16.49;100.00;101824.91;5057759;28;20077;-71
2023/09/16 05:30:50;;;;;;;9.27;5.38;;;;;;;16.59;100.00;101832.63;5090802;28;20082;-71
2023/09/16 05:33:16;;;;;;;11.25;5.43;;;;;;;16.66;100.00;101836.97;5077617;28;20063;-69
2023/09/16 05:35:41;;;;;;;10.10;5.40;;;;;;;16.72;100.00;101834.44;5077290;28;20509;-69
2023/09/16 05:38:07;;;;;;;15.60;5.72;;;;;;;16.76;100.00;101839.28;5059554;28;20032;-71
2023/09/16 05:40:36;;;;;;;11.38;5.53;;;;;;;16.84;100.00;101828.16;5075941;28;20161;-73
2023/09/16 05:43:01;;;;;;;11.38;5.65;;;;;;;16.87;100.00;101833.16;5076382;28;20028;-71
2023/09/16 05:45:27;;;;;;;10.48;5.57;;;;;;;16.93;100.00;101827.91;5074994;28;20431;-72
2023/09/16 05:47:52;;;;;;;11.63;5.95;;;;;;;17.02;100.00;101832.03;5060417;28;20240;-72
2023/09/16 05:50:18;;;;;;;12.85;5.70;;;;;;;17.10;100.00;101829.06;5077045;28;20025;-69
2023/09/16 05:52:43;;;;;;;8.50;5.63;;;;;;;17.16;100.00;101819.22;5075334;28;20453;-69
2023/09/16 05:55:09;;;;;;;9.48;5.68;;;;;;;17.22;100.00;101821.91;5071675;28;20024;-71
2023/09/16 05:57:35;;;;;;;10.63;5.40;;;;;;;17.23;100.00;101814.56;5078273;28;20103;-68
2023/09/16 06:00:01;;;;;;;9.55;5.30;;;;;;;16.92;100.00;101753.69;5077482;28;20025;-69
2023/09/16 06:02:27;;;;;;;9.70;5.03;;;;;;;17.27;100.00;101811.19;5076338;28;20032;-68
2023/09/16 06:04:52;;;;;;;11.23;5.20;;;;;;;17.32;100.00;101805.94;5077992;28;20060;-69
2023/09/16 06:07:18;;;;;;;10.02;5.50;;;;;;;17.29;100.00;101790.03;5085805;28;20020;-70
2023/09/16 06:09:43;;;;;;;8.07;5.53;;;;;;;17.43;100.00;101798.13;5092510;28;20052;-69
2023/09/16 06:12:12;;;;;;;10.70;5.22;;;;;;;17.41;100.00;101784.72;5074517;28;20347;-70
2023/09/16 06:14:39;;;;;;;7.55;5.13;;;;;;;17.43;100.00;101792.69;5075618;28;20429;-69
2023/09/16 06:17:04;;;;;;;11.95;5.63;;;;;;;17.53;100.00;101804.72;5075476;28;20074;-69
2023/09/16 06:19:31;;;;;;;13.38;6.20;;;;;;;17.69;100.00;101808.81;5075148;28;20029;-69
2023/09/16 06:21:57;;;;;;;9.73;4.93;;;;;;;17.80;100.00;101808.09;5074779;28;20483;-69
2023/09/16 06:24:23;;;;;;;12.93;5.32;;;;;;;17.79;100.00;101797.44;5058135;28;20328;-69
2023/09/16 06:26:50;;;;;;;9.45;4.95;;;;;;;17.91;100.00;101811.16;5057411;28;20051;-70
2023/09/16 06:29:15;;;;;;;8.50;5.18;;;;;;;18.00;100.00;101817.97;5057589;28;20024;-70
2023/09/16 06:31:40;;;;;;;10.10;4.93;;;;;;;18.08;100.00;101812.25;5077125;28;20067;-69
2023/09/16 06:34:06;;;;;;;11.63;6.03;;;;;;;18.19;100.00;101813.41;5079642;28;20037;-69
2023/09/16 06:36:32;;;;;;;8.43;4.80;;;;;;;18.21;100.00;101817.56;5078088;28;20075;-69
2023/09/16 06:38:59;;;;;;;6.57;4.40;;;;;;;18.27;100.00;101824.81;5078063;28;20066;-69
2023/09/16 06:41:25;;;;;;;10.25;4.85;;;;;;;18.29;100.00;101816.44;5077333;28;20070;-70
2023/09/16 06:43:50;;;;;;;10.77;4.60;;;;;;;18.24;100.00;101810.81;5079995;28;20032;-69
2023/09/16 06:46:17;;;;;;;8.63;4.68;;;;;;;18.31;100.00;101812.44;5076687;28;20115;-69
2023/09/16 06:48:44;;;;;;;6.28;4.75;;;;;;;18.38;100.00;101811.53;5078049;28;20024;-69
2023/09/16 06:51:09;;;;;;;7.88;4.18;;;;;;;18.47;100.00;101818.31;5076689;28;20035;-70
2023/09/16 06:53:35;;;;;;;9.10;4.07;;;;;;;18.55;100.00;101807.13;5078831;28;20024;-69
2023/09/16 06:56:00;;;;;;;8.93;4.40;;;;;;;18.60;100.00;101818.19;5079383;28;20025;-69
2023/09/16 06:58:26;;;;;;;6.18;4.03;;;;;;;18.65;100.00;101812.06;5094606;28;20578;-69
2023/09/16 07:00:51;;;;;;;7.53;4.10;;;;;;;18.75;100.00;101815.09;5077727;28;20044;-69
2023/09/16 07:03:18;;;;;;;7.82;4.00;;;;;;;18.86;100.00;101811.59;5078417;28;20106;-69
2023/09/16 07:05:47;;;;;;;9.15;4.70;;;;;;;18.92;100.00;101812.59;5077186;28;20029;-71
2023/09/16 07:08:14;;;;;;;5.85;3.83;;;;;;;19.01;100.00;101816.66;5075493;28;20020;-70
2023/09/16 07:10:39;;;;;;;9.18;3.90;;;;;;;19.08;100.00;101811.13;5075929;28;20028;-69
2023/09/16 07:13:04;;;;;;;5.65;3.20;;;;;;;19.12;100.00;101810.41;5077018;28;20038;-70
2023/09/16 07:15:30;;;;;;;6.13;3.80;;;;;;;19.08;100.00;101792.84;5077572;28;20119;-70
2023/09/16 07:17:55;;;;;;;8.73;3.58;;;;;;;19.29;100.00;101807.03;5076314;28;20064;-70
2023/09/16 07:20:22;;;;;;;7.97;3.60;;;;;;;19.42;100.00;101817.75;5076973;28;20042;-70
2023/09/16 07:22:48;;;;;;;10.27;3.30;;;;;;;19.73;100.00;101791.22;5076931;28;20433;-70
2023/09/16 07:25:13;;;;;;;7.85;3.30;;;;;;;19.82;100.00;101801.56;5077519;28;20040;-70
2023/09/16 07:27:39;;;;;;;5.72;3.35;;;;;;;19.91;100.00;101807.53;5078648;28;20047;-70
2023/09/16 07:30:08;;;;;;;10.00;3.10;;;;;;;19.88;100.00;101810.72;5060290;28;20027;-70
2023/09/16 07:32:33;;;;;;;7.03;3.05;;;;;;;19.77;100.00;101798.75;5077622;28;20036;-70
2023/09/16 07:34:59;;;;;;;4.65;2.83;;;;;;;19.80;100.00;101797.41;5077859;28;20077;-70
2023/09/16 07:37:24;;;;;;;6.45;3.20;;;;;;;19.70;100.00;101808.91;5059591;28;20032;-70
2023/09/16 07:39:51;;;;;;;12.20;3.28;;;;;;;19.73;100.00;101804.88;5060439;28;20021;-69
2023/09/16 07:42:16;;;;;;;5.63;3.05;;;;;;;19.90;100.00;101800.38;5076009;28;20036;-70
2023/09/16 07:44:41;;;;;;;7.15;2.80;;;;;;;19.91;100.00;101796.59;5075470;28;20035;-70
2023/09/16 07:47:07;;;;;;;6.50;3.08;;;;;;;20.10;100.00;101808.25;5077652;28;20107;-70
2023/09/16 07:49:32;;;;;;;8.02;2.90;;;;;;;20.24;100.00;101798.72;5077468;28;20546;-70
2023/09/16 07:51:58;;;;;;;6.00;2.90;;;;;;;20.33;100.00;101799.16;5076589;28;20033;-70
2023/09/16 07:54:23;;;;;;;4.65;2.55;;;;;;;20.53;100.00;101802.41;5076029;28;20033;-70
2023/09/16 07:56:49;;;;;;;6.70;3.10;;;;;;;20.63;100.00;101802.59;5077956;28;20077;-70
2023/09/16 07:59:20;;;;;;;7.43;2.95;;;;;;;20.41;100.00;101793.34;5058878;28;20100;-70
2023/09/16 08:01:45;;;;;;;7.75;3.15;;;;;;;20.41;100.00;101793.34;5076540;28;20032;-70
2023/09/16 08:04:11;;;;;;;5.05;2.47;;;;;;;20.57;99.69;101795.38;5075679;28;20074;-70
2023/09/16 08:06:36;;;;;;;4.97;2.78;;;;;;;20.63;99.50;101808.06;5076481;28;20558;-70
2023/09/16 08:09:02;;;;;;;5.70;2.70;;;;;;;20.66;99.30;101801.28;5077038;28;20073;-70
2023/09/16 08:11:28;;;;;;;7.85;2.70;;;;;;;20.81;98.98;101804.31;5075831;28;20115;-70
2023/09/16 08:13:53;;;;;;;5.53;2.60;;;;;;;20.88;98.36;101788.59;5076951;28;20089;-70
2023/09/16 08:16:19;;;;;;;5.82;2.90;;;;;;;20.98;97.65;101806.28;5075546;28;20036;-70
2023/09/16 08:18:44;;;;;;;4.05;2.60;;;;;;;21.15;97.26;101806.31;5075492;28;20028;-70
2023/09/16 08:21:10;;;;;;;7.63;2.40;;;;;;;21.29;96.88;101813.16;5076722;28;20486;-70
2023/09/16 08:23:35;;;;;;;6.70;2.63;;;;;;;21.21;96.58;101787.00;5075544;28;20127;-70
2023/09/16 08:26:01;;;;;;;7.47;3.20;;;;;;;21.33;96.43;101808.88;5074974;28;20032;-70
2023/09/16 08:28:26;;;;;;;5.60;2.80;;;;;;;21.37;96.37;101804.59;5076337;28;20502;-70
2023/09/16 08:30:52;;;;;;;7.07;3.42;;;;;;;21.44;95.98;101809.91;5076681;28;20039;-70
2023/09/16 08:33:17;;;;;;;6.22;2.90;;;;;;;21.41;95.60;101805.75;5076421;28;20390;-70
2023/09/16 08:35:43;;;;;;;5.90;2.53;;;;;;;21.42;95.30;101796.44;5076171;28;20115;-70
2023/09/16 08:38:09;;;;;;;5.03;2.53;;;;;;;21.43;95.50;101806.34;5075098;28;20034;-70
2023/09/16 08:40:34;;;;;;;4.72;2.75;;;;;;;21.38;95.00;101814.44;5074926;28;20032;-70
2023/09/16 08:43:25;;;;;;;5.00;2.85;;;;;;;21.41;94.94;101808.47;5075397;28;20070;-70
2023/09/16 08:46:02;;;;;;;7.38;2.70;;;;;;;21.40;94.87;101826.00;5082060;28;20035;-70
2023/09/16 08:48:33;;;;;;;5.47;2.60;;;;;;;21.47;94.56;101818.44;5074787;28;20099;-70
2023/09/16 08:51:01;;;;;;;5.80;2.70;;;;;;;21.50;94.29;101811.66;5075721;28;20107;-70
2023/09/16 08:53:29;;;;;;;5.07;2.50;;;;;;;21.72;93.66;101817.19;5076416;28;20163;-70
2023/09/16 08:55:55;;;;;;;5.95;2.97;;;;;;;21.87;93.09;101822.13;5076508;28;20047;-70
2023/09/16 08:58:21;;;;;;;6.95;2.70;;;;;;;22.09;92.36;101813.97;5074652;28;20032;-70
2023/09/16 09:00:47;;;;;;;6.95;2.88;;;;;;;22.08;92.21;101812.28;5075468;28;20078;-70
2023/09/16 09:03:12;;;;;;;6.30;2.75;;;;;;;22.11;92.29;101822.75;5075984;28;20499;-70
2023/09/16 09:05:38;;;;;;;7.82;2.85;;;;;;;22.07;92.21;101816.13;5060627;28;20028;-70
2023/09/16 09:08:09;;;;;;;5.32;2.78;;;;;;;22.07;92.50;101818.84;5076194;28;20031;-69
2023/09/16 09:10:36;;;;;;;6.00;2.80;;;;;;;22.07;92.53;101818.84;5076913;28;20115;-69
2023/09/16 09:13:03;;;;;;;5.38;2.67;;;;;;;22.09;92.34;101819.44;5077272;28;20089;-68
2023/09/16 09:15:30;;;;;;;5.78;2.72;;;;;;;22.05;92.15;101811.72;5076862;28;20111;-68
2023/09/16 09:17:57;;;;;;;6.50;2.72;;;;;;;22.08;92.06;101815.84;5076854;28;20045;-68
2023/09/16 09:20:28;;;;;;;8.30;2.70;;;;;;;22.15;92.31;101811.09;5076711;28;20395;-68
2023/09/16 09:22:56;;;;;;;8.98;2.90;;;;;;;22.26;91.57;101809.31;5073422;28;20475;-69
2023/09/16 09:25:26;;;;;;;5.63;2.85;;;;;;;22.42;91.36;101804.88;5072258;28;20078;-70
2023/09/16 09:27:53;;;;;;;7.50;2.75;;;;;;;22.56;91.05;101797.91;5075888;28;20024;-70
2023/09/16 09:30:24;;;;;;;6.47;3.10;;;;;;;22.67;91.04;101801.59;5075090;28;20088;-70
2023/09/16 09:32:50;;;;;;;9.85;4.65;;;;;;;22.73;91.25;101804.16;5075825;28;20082;-70
2023/09/16 09:35:15;;;;;;;10.77;4.63;;;;;;;22.82;91.02;101796.31;5074069;28;20032;-70
2023/09/16 09:37:41;;;;;;;5.63;3.00;;;;;;;22.88;90.65;101792.53;5072993;28;20472;-68
2023/09/16 09:40:11;;;;;;;10.82;3.83;;;;;;;22.99;90.18;101801.72;5061989;28;20032;-69
2023/09/16 09:42:45;;;;;;;6.97;2.88;;;;;;;22.98;89.65;101778.13;5080271;28;20024;-69
2023/09/16 09:45:11;;;;;;;5.63;2.97;;;;;;;23.04;89.55;101793.53;5075017;28;20046;-70
2023/09/16 09:47:38;;;;;;;8.05;3.30;;;;;;;23.00;89.45;101788.84;5075171;28;20040;-70
2023/09/16 09:50:07;;;;;;;7.35;2.85;;;;;;;23.08;88.81;101766.38;5075402;28;20104;-69
2023/09/16 09:52:34;;;;;;;6.95;3.00;;;;;;;23.08;88.63;101777.38;5075328;28;20020;-70
2023/09/16 09:55:01;;;;;;;8.85;2.75;;;;;;;23.03;89.24;101774.59;5075514;28;20080;-69
2023/09/16 09:57:27;;;;;;;6.38;3.08;;;;;;;23.11;87.96;101761.22;5057143;28;20445;-69
2023/09/16 09:59:54;;;;;;;9.85;2.85;;;;;;;23.30;87.87;101758.09;5073796;28;20029;-68
2023/09/16 10:02:24;;;;;;;7.45;2.80;;;;;;;23.15;88.26;101753.31;5074379;28;20039;-68
2023/09/16 10:04:58;;;;;;;7.25;3.08;;;;;;;23.21;87.74;101782.44;5056666;28;20131;-69
2023/09/16 10:07:25;;;;;;;8.35;3.00;;;;;;;23.27;87.44;101770.41;5077624;28;20072;-68
2023/09/16 10:09:51;;;;;;;6.15;3.15;;;;;;;23.28;87.29;101765.75;5078848;28;20054;-69
2023/09/16 10:12:17;;;;;;;8.80;3.17;;;;;;;23.20;87.37;101769.81;5044853;28;20034;-69
2023/09/16 10:14:45;;;;;;;5.22;2.90;;;;;;;23.19;87.52;101769.00;5078876;28;20044;-70
2023/09/16 10:17:13;;;;;;;6.35;2.75;;;;;;;23.25;87.54;101767.13;5061282;28;20131;-69
2023/09/16 10:19:40;;;;;;;9.15;2.75;;;;;;;23.58;86.05;101759.72;5061313;28;20553;-69
2023/09/16 10:22:05;;;;;;;4.88;2.80;;;;;;;23.83;84.71;101759.91;5079220;28;20035;-69
2023/09/16 10:24:31;;;;;;;7.50;3.00;;;;;;;23.82;84.33;101760.19;5061285;28;20028;-70
2023/09/16 10:27:02;;;;;;;5.82;2.80;;;;;;;23.69;84.23;101742.22;5078969;28;20036;-69
2023/09/16 10:29:30;;;;;;;5.32;2.70;;;;;;;23.53;84.30;101729.44;5078915;28;20035;-70
2023/09/16 10:31:56;;;;;;;5.43;2.45;;;;;;;23.70;84.00;101754.88;5058803;28;20052;-70
2023/09/16 10:34:22;;;;;;;5.72;3.00;;;;;;;23.54;84.64;101739.31;5060398;28;20040;-70
2023/09/16 10:36:48;;;;;;;5.32;2.30;;;;;;;23.57;84.07;101736.88;5067951;28;20041;-70
2023/09/16 10:39:15;;;;;;;6.70;2.50;;;;;;;23.54;84.22;101740.19;5079456;28;20040;-70
2023/09/16 10:41:43;;;;;;;5.93;2.58;;;;;;;23.39;84.65;101735.38;5078594;28;20021;-71
2023/09/16 10:44:15;;;;;;;6.43;2.92;;;;;;;23.35;84.80;101739.75;5062753;28;20542;-71
2023/09/16 10:46:43;;;;;;;8.50;2.72;;;;;;;23.27;85.05;101736.66;5078872;28;20031;-70
2023/09/16 10:49:08;;;;;;;4.88;2.70;;;;;;;23.15;85.35;101734.09;5078766;28;20037;-70
2023/09/16 10:51:45;;;;;;;6.63;2.33;;;;;;;23.18;84.43;101737.13;5061902;28;20051;-69
2023/09/16 10:54:20;;;;;;;7.53;2.92;;;;;;;23.25;83.84;101733.34;5079440;28;20060;-71
2023/09/16 10:56:48;;;;;;;5.57;2.80;;;;;;;23.26;84.29;101724.00;5077830;28;20040;-71
2023/09/16 10:59:17;;;;;;;8.00;2.83;;;;;;;23.37;83.93;101726.56;5058872;28;20095;-70
2023/09/16 11:01:47;;;;;;;5.68;2.80;;;;;;;23.36;82.80;101718.59;5079741;28;20020;-70
2023/09/16 11:04:15;;;;;;;8.75;2.40;;;;;;;23.27;82.55;101717.41;5080208;28;20060;-69
2023/09/16 11:06:42;;;;;;;5.32;2.25;;;;;;;23.15;82.33;101696.47;5080070;28;20028;-69
2023/09/16 11:09:08;;;;;;;7.63;2.90;;;;;;;23.27;81.42;101721.00;5079787;28;20038;-70
2023/09/16 11:11:35;;;;;;;5.10;2.40;;;;;;;23.23;81.48;101716.28;5061622;28;20031;-70
2023/09/16 11:14:02;;;;;;;9.35;2.95;;;;;;;23.29;81.06;101704.28;5080430;28;20047;-72